Forside
METAR-TAF:

METAR-TAF

Lufthavne :

Spirit of St Louis Airport

St. Louis, Missouri, USA

Breddekreds: 38-39-26N, længdekreds: 090-39-21W, højde: 141 m

Aktuelle vejr

Denne rapport blev lavet for 20 minutter siden, kl. 15:54 UTC
Vind 4 kt fra nordnordøst
Temperatur 14°C
Fugtighed 44%
Tryk 1027 hPa
Sigt: 16.1 km
skyfri

METAR: KSUS 231554Z 03004KT 10SM CLR 14/02 A3032 RMK AO2 SLP267 T01440022

Tid: 11:14 (16:14 UTC)

Vejrudsigter

Denne rapport blev lavet for 3 timer og 47 minutter siden, kl. 12:27 UTC
Foreløbig gælder fra 23 på 12 UTC til 24 på 12 UTC
Vind 3 kt fra varierende retninger
Sigt: 10 km
Nogle få skyer i en højde af 25000 ft
Fra 23 på 1600 UTC
Vind 7 kt fra nord
Sigt: 10 km
skyfri
Fra 24 på 0000 UTC
Vind 3 kt fra varierende retninger
Sigt: 10 km
skyfri

TAF: KSUS 231227Z 2312/2412 VRB03KT P6SM FEW250 FM231600 01007KT P6SM SKC FM240000 VRB03KT P6SM SKC

Vejrobservationer og prognoser fra mere end 4000 lufthavne (METAR og TAF).

De gule og røde prikker repræsenterer de meteorologiske stationer.

Flyt musen over at se navnet på stationen.

Så klik over at se vejr observationer og prognoser.

At skifte det kort: Klik på de grønne knapper med et sort kors for at zoome ind; på den grønne knap med en bindestreg for at zoome ud; eller på de grønne pile for tilstødende kort.


METAR-TAF: